< < Back
Terminal Aerodrome Forecast


Current Version              Previous Versions:   1  2  3  4  5  6  7  8  9  

Terminal Aerodrome Forecast

125
FTUS42 KFFC 050733 AAA
TAFATL
TAF AMD
KATL 050733Z 0508/0612 25003KT P6SM SCT015 BKN050
      TEMPO 0508/0512 5SM BR BKN012
     FM051400 25005KT P6SM VCSH BKN025
     FM051900 22009G14KT P6SM VCSH BKN050 PROB30 0519/0524 -TSRA
      BKN025CB
     FM060200 25005KT P6SM BKN040
     FM060800 25004KT 6SM BR SCT012 BKN100=



Latest METAR

103
SAUS70 KWBC 050900 RRK
MTRATL
METAR KATL 050852Z 25005KT 8SM BKN007 BKN055 BKN110 OVC180 21/19 A3010
RMK AO2 SLP184 T02060189 52005 $


USA.gov is the U.S. government's official web portal to all federal, state and local government web resources and services.